Flight Track Log - Related Links

Times and Time Zones

All times are in EDT time to prevent confusion due to time zone crossing. See the BWA520 flight status page for this flight to view local times or setup timezone preferences in your user account.

Time Position Orientation Groundspeed Altitude Reporting Facility
EDT Latitude Longitude Course Direction KTS MPH feet Rate Location/Type
12:53AM 11.0301 -61.4809 324° Northwest  Level Estimated
12:54AM 11.0621 -61.5927 286° West  Level FlightAware Approximate
12:55AM 11.1709 -61.6284 330° Northwest  Level Estimated
12:56AM 11.2512 -61.7124 314° West  Level FlightAware Approximate
12:57AM 11.3608 -61.7483 323° Northwest  Level Estimated
12:58AM 11.4320 -61.8405 308° West  Level FlightAware Approximate
12:59AM 11.5416 -61.8762 332° Northwest  Level Estimated
01:00AM 11.6200 -61.9622 313° West  Level FlightAware Approximate
01:01AM 11.7296 -61.9978 324° Northwest  Level Estimated
01:02AM 11.8393 -62.0335 327° Northwest  Level Estimated
01:03AM 11.9489 -62.0691 328° Northwest  Level Estimated
01:04AM 12.0211 -62.1607 309° West  Level FlightAware Approximate
01:05AM 12.0933 -62.2523 309° West  Level FlightAware Approximate
01:06AM 12.2031 -62.2877 330° Northwest  Level Estimated
01:07AM 12.3128 -62.3231 327° Northwest  Level Estimated
01:08AM 12.4039 -62.3951 322° Northwest  Level FlightAware Approximate
01:09AM 12.4950 -62.4671 322° Northwest  Level FlightAware Approximate
01:10AM 12.5860 -62.5392 322° Northwest  Level FlightAware Approximate
01:11AM 12.6770 -62.6113 322° Northwest  Level FlightAware Approximate
01:12AM 12.7681 -62.6834 322° Northwest  Level FlightAware Approximate
01:13AM 12.8591 -62.7556 322° Northwest  Level FlightAware Approximate
01:14AM 12.9500 -62.8279 322° Northwest  Level FlightAware Approximate
01:15AM 13.0410 -62.9002 322° Northwest  Level FlightAware Approximate
01:16AM 13.1319 -62.9726 322° Northwest  Level FlightAware Approximate
01:17AM 13.2420 -63.0072 329° Northwest  Level Estimated
01:18AM 13.3384 -63.0717 327° Northwest  Level FlightAware Approximate
01:19AM 10.7002 -61.3718 327° Northwest  Level Estimated
01:20AM 10.8050 -61.4065 324° Northwest  Level Estimated
01:21AM 10.9098 -61.4411 331° Northwest  Level Estimated
01:22AM 11.0146 -61.4758 324° Northwest  Level Estimated
01:23AM 11.0526 -61.5812 290° West  Level FlightAware Approximate
01:24AM 11.1574 -61.6157 330° Northwest  Level Estimated
01:25AM 11.2346 -61.6959 314° West  Level FlightAware Approximate
01:26AM 11.3117 -61.7761 314° West  Level FlightAware Approximate
01:27AM 11.4167 -61.8104 323° Northwest  Level Estimated
01:28AM 11.5216 -61.8447 332° Northwest  Level Estimated
01:29AM 11.5948 -61.9288 312° West  Level FlightAware Approximate
01:30AM 11.6997 -61.9630 324° Northwest  Level Estimated
01:31AM 11.8047 -61.9972 327° Northwest  Level Estimated
01:32AM 11.9097 -62.0314 327° Northwest  Level Estimated
01:33AM 11.9718 -62.1245 304° West  Level FlightAware Approximate
01:34AM 12.0339 -62.2175 304° West  Level FlightAware Approximate
01:35AM 12.1390 -62.2514 328° Northwest  Level Estimated
01:36AM 12.2287 -62.3169 324° Northwest  Level FlightAware Approximate
01:37AM 12.3184 -62.3825 324° Northwest  Level FlightAware Approximate
01:38AM 12.4080 -62.4480 324° Northwest  Level FlightAware Approximate
01:39AM 12.4977 -62.5137 324° Northwest  Level FlightAware Approximate
01:39AM 15.2000 -64.1667 324° Northwest 490 564 34,000  Level San Juan Center
01:40AM 12.5873 -62.5793 324° Northwest  Level FlightAware Approximate
01:40AM 15.3333 -64.1833 353° North 470 541 34,000  Level San Juan Center
01:41AM 12.6769 -62.6451 324° Northwest  Level FlightAware Approximate
01:41AM 15.4667 -64.2000 353° North 470 541 34,000  Level San Juan Center
01:42AM 12.7665 -62.7108 324° Northwest  Level FlightAware Approximate
01:42AM 15.5833 -64.2167 352° North 470 541 34,000  Level San Juan Center
01:43AM 12.8561 -62.7766 324° Northwest  Level FlightAware Approximate
01:43AM 15.7167 -64.2333 353° North 470 541 34,000  Level San Juan Center
01:44AM 12.9457 -62.8425 324° Northwest  Level FlightAware Approximate
01:44AM 15.8500 -64.2500 353° North 470 541 34,000  Level San Juan Center
01:45AM 16.0000 -64.2833 348° North 460 529 34,000  Level San Juan Center
01:46AM 16.1167 -64.3000 352° North 460 529 34,000 350 Level San Juan Center
01:47AM 16.2500 -64.3167 353° North 470 541 34,700 893 Climbing San Juan Center
01:48AM 16.3833 -64.3333 353° North 460 529 35,800 694 Climbing San Juan Center
01:49AM 16.5000 -64.3500 352° North 460 529 36,100 150 Climbing San Juan Center
01:50AM 16.6333 -64.3667 353° North 460 529 36,100  Level San Juan Center
01:51AM 16.7667 -64.3833 353° North 460 529 36,100 -50 Level San Juan Center
01:52AM 16.8833 -64.4000 352° North 460 529 36,000 -50 Descending San Juan Center
01:53AM 17.0167 -64.4167 353° North 460 529 36,000  Level San Juan Center
01:54AM 17.1333 -64.4333 352° North 450 518 36,000  Level San Juan Center
01:55AM 17.2667 -64.4500 353° North 460 529 36,000  Level San Juan Center
01:56AM 17.4000 -64.4667 353° North 460 529 36,000  Level San Juan Center
01:57AM 17.5167 -64.4833 352° North 460 529 36,000  Level San Juan Center
01:58AM 17.6500 -64.5000 353° North 460 529 36,000  Level San Juan Center
01:59AM 17.7833 -64.5167 353° North 470 541 36,000  Level San Juan Center
02:00AM 17.9000 -64.5333 352° North 460 529 36,000  Level San Juan Center
02:01AM 18.0333 -64.5500 353° North 470 541 36,000  Level San Juan Center
02:02AM 18.1667 -64.5667 353° North 470 541 36,000  Level San Juan Center
02:03AM 18.3000 -64.5833 353° North 470 541 36,000  Level San Juan Center
02:04AM 18.4333 -64.6000 353° North 470 541 36,000  Level San Juan Center
02:05AM 18.5500 -64.6167 352° North 470 541 36,000 50 Level San Juan Center
02:06AM 18.6833 -64.6333 353° North 460 529 36,100 50 Climbing San Juan Center
02:07AM 18.8167 -64.6500 353° North 450 518 36,100  Level San Juan Center
02:08AM 18.9333 -64.6667 352° North 460 529 36,100  Level San Juan Center
02:09AM 19.0667 -64.6833 353° North 460 529 36,100 -50 Level San Juan Center
02:10AM 19.1833 -64.7167 345° North 450 518 36,000 -50 Descending San Juan Center
02:11AM 19.3167 -64.7333 353° North 460 529 36,000  Level San Juan Center
02:12AM 19.4333 -64.7500 352° North 460 529 36,000  Level San Juan Center
02:13AM 19.5667 -64.7667 353° North 460 529 36,000  Level San Juan Center
02:14AM 19.7000 -64.7833 353° North 460 529 36,000  Level San Juan Center
02:15AM 19.8167 -64.8000 352° North 460 529 36,000  Level San Juan Center
02:16AM 19.9500 -64.8167 353° North 460 529 36,000  Level San Juan Center
02:17AM 20.0833 -64.8333 353° North 460 529 36,000  Level San Juan Center
02:18AM 20.2000 -64.8500 352° North 460 529 36,000  Level San Juan Center
02:19AM 20.3333 -64.8667 353° North 460 529 36,000  Level San Juan Center
02:20AM 20.4667 -64.9000 347° North 460 529 36,000  Level San Juan Center
02:21AM 20.5833 -64.9167 352° North 460 529 36,000  Level San Juan Center
02:22AM 20.7167 -64.9333 353° North 470 541 36,000  Level San Juan Center
02:23AM 20.8500 -64.9500 353° North 470 541 36,000  Level San Juan Center
02:24AM 20.9667 -64.9667 352° North 470 541 36,000  Level San Juan Center
02:25AM 21.1000 -64.9833 353° North 480 552 36,000  Level San Juan Center
02:26AM 21.2333 -65.0000 353° North 480 552 36,000 476 Level San Juan Center
02:27AM 21.3833 -65.0333 348° North 480 552 37,000 952 Climbing San Juan Center
02:28AM 21.5167 -65.0500 353° North 440 506 38,000 500 Climbing San Juan Center
02:29AM 21.6333 -65.0500 360° North 530 610 38,000  Level San Juan Center
02:30AM 21.7667 -65.0833 347° North 470 541 38,000  Level San Juan Center
02:31AM 21.8833 -65.1000 352° North 450 518 38,000  Level San Juan Center
02:32AM 22.0167 -65.1167 353° North 460 529 38,000  Level San Juan Center
02:33AM 22.1000 -65.1333 345° North 400 460 38,000  Level New York Oceanic (ODAPS)
02:48AM 23.5000 -65.5333 351° North 423 487 38,000  Level New York Oceanic (ODAPS)
03:35AM 29.4442 -66.6139 350° North 439 505 38,000  Level New York Center
03:36AM 29.4503 -66.6258 350° North 423 487 38,000  Level FlightAware Transoceanic
03:36AM 29.5742 -66.6483 347° North 434 499 38,000  Level New York Center
03:37AM 29.5669 -66.6485 350° North 423 487 38,000  Level FlightAware Transoceanic
03:37AM 29.6892 -66.6669 352° North 426 490 38,000  Level New York Center
03:38AM 29.6835 -66.6712 350° North 423 487 38,000  Level FlightAware Transoceanic
03:38AM 29.7964 -66.6956 347° North 419 482 38,000  Level New York Center
03:39AM 29.8001 -66.6939 350° North 423 487 38,000  Level FlightAware Transoceanic
03:39AM 29.9153 -66.7117 353° North 409 471 38,000  Level New York Center
03:40AM 29.9167 -66.7167 350° North 423 487 38,000  Level FlightAware Transoceanic
03:40AM 30.0347 -66.7375 349° North 409 471 38,000  Level New York Center
03:41AM 30.1350 -66.7522 353° North 416 479 38,000  Level New York Center
03:42AM 30.2586 -66.7778 350° North 402 463 38,000  Level New York Center
03:43AM 30.3614 -66.7972 351° North 418 481 38,000  Level New York Center
03:44AM 30.4933 -66.8275 349° North 423 487 38,000  Level New York Center
03:45AM 30.6064 -66.8464 352° North 422 486 38,000  Level New York Center
03:46AM 30.7133 -66.8708 349° North 416 479 38,000  Level New York Center
03:47AM 30.8411 -66.8942 351° North 426 490 38,000  Level New York Center
03:48AM 30.9606 -66.9178 350° North 431 496 38,000  Level New York Center
03:49AM 31.0739 -66.9467 348° North 432 497 38,000  Level New York Center
03:50AM 31.1972 -66.9681 352° North 431 496 38,000  Level New York Center
03:51AM 31.3042 -66.9903 350° North 426 490 38,000  Level New York Center
03:52AM 31.4383 -67.0158 351° North 428 493 38,000  Level New York Center
03:53AM 31.5578 -67.0425 349° North 428 493 38,000  Level New York Center
03:54AM 31.6689 -67.0644 350° North 434 499 38,000  Level New York Center
03:55AM 31.7967 -67.0883 351° North 428 493 38,000  Level New York Center
03:56AM 31.9142 -67.1128 350° North 428 493 38,000  Level New York Center
03:57AM 32.0211 -67.1350 350° North 440 506 38,000  Level New York Center
03:58AM 32.1489 -67.1617 350° North 423 487 38,000  Level New York Center
03:59AM 32.2494 -67.1819 350° North 417 480 38,000  Level New York Center
04:00AM 32.3817 -67.2083 350° North 426 490 38,000  Level New York Center
04:01AM 32.5053 -67.2353 350° North 420 483 38,000  Level New York Center
04:02AM 32.6122 -67.2553 351° North 439 505 38,000  Level New York Center
04:03AM 32.7506 -67.2867 349° North 445 512 38,000  Level New York Center
04:06AM 33.1050 -67.3589 352° North 441 507 38,000  Level New York Center
04:07AM 33.2078 -67.3819 349° North 427 491 38,000  Level New York Center
04:08AM 33.3378 -67.4092 350° North 426 490 38,000  Level New York Center
04:11AM 33.6964 -67.4819 325° Northwest 418 481 38,000  Level New York Center
04:12AM 33.8181 -67.5072 350° North 437 503 38,000  Level New York Center
04:13AM 33.9231 -67.5356 347° North 430 495 38,000  Level New York Center
04:14AM 34.0553 -67.5631 350° North 441 507 38,000  Level New York Center
04:50AM 37.2661 -70.5292 320° Northwest 445 512 38,000  Level New York Center
04:51AM 37.1731 -70.4419 322° Northwest  Level FlightAware Approximate
04:51AM 37.3308 -70.6075 316° Northwest 425 489 38,000  Level New York Center
04:52AM 37.2581 -70.5259 322° Northwest  Level FlightAware Approximate
04:52AM 37.4353 -70.7067 323° Northwest 415 478 38,000  Level New York Center
04:53AM 37.3431 -70.6101 322° Northwest  Level FlightAware Approximate
04:53AM 37.5186 -70.7903 321° Northwest 396 456 38,000  Level New York Center
04:54AM 37.4274 -70.6954 320° Northwest  Level FlightAware Approximate
04:54AM 37.6083 -70.8611 328° Northwest 390 449 38,000  Level New York Center
04:55AM 37.6872 -70.9533 317° Northwest 390 449 38,000  Level New York Center
04:56AM 37.7183 -71.0847 287° West 365 420 38,000  Level New York Center
04:57AM 37.7533 -71.2056 290° West 358 412 38,000  Level New York Center
04:58AM 37.8469 -71.2825 327° Northwest 365 420 38,000  Level New York Center
04:59AM 37.9403 -71.3594 327° Northwest 379 436 38,000  Level New York Center
05:00AM 38.0294 -71.4475 322° Northwest 393 452 38,000  Level New York Center
05:01AM 38.1250 -71.5117 332° Northwest 398 458 38,000  Level New York Center
05:02AM 38.2161 -71.6000 323° Northwest 398 458 38,000  Level New York Center
05:03AM 38.3072 -71.6803 325° Northwest 398 458 38,000  Level New York Center
05:04AM 38.4006 -71.7611 326° Northwest 398 458 38,000  Level New York Center
05:05AM 38.4936 -71.8367 328° Northwest 398 458 38,000  Level New York Center
05:06AM 38.5867 -71.9231 324° Northwest 404 465 38,000  Level New York Center
05:07AM 38.6836 -72.0125 324° Northwest 409 471 38,000  Level New York Center
05:08AM 38.7808 -72.0942 327° Northwest 419 482 38,000 -492 Level New York Center
05:09AM 38.8800 -72.1786 326° Northwest 424 488 37,000 -958 Descending New York Center
05:10AM 38.9789 -72.2661 325° Northwest 424 488 36,100 -1,884 Descending New York Center
05:11AM 39.0819 -72.3567 326° Northwest 430 495 33,200 -3,000 Descending New York Center
05:12AM 39.1828 -72.4472 325° Northwest 441 507 30,100 -2,824 Descending New York Center
05:13AM 39.2836 -72.5383 325° Northwest 447 514 27,600 -2,500 Descending New York Center
05:14AM 39.3822 -72.6267 325° Northwest 447 514 25,100 -2,471 Descending New York Center
05:15AM 39.4747 -72.7100 325° Northwest 435 501 22,700 -2,311 Descending New York Center
05:16AM 39.5631 -72.7906 325° Northwest 409 471 20,400 -2,250 Descending New York Center
05:17AM 39.6514 -72.8683 326° Northwest 393 452 18,200 -2,218 Descending New York Center
05:18AM 39.7353 -72.9439 325° Northwest 380 437 16,000 -2,200 Descending New York Center
05:19AM 39.8172 -73.0194 325° Northwest 374 430 13,800 -2,218 Descending New York Center
05:20AM 39.8969 -73.0950 324° Northwest 363 418 11,600 -1,750 Descending New York Center
05:21AM 39.9750 -73.1628 326° Northwest 349 402 10,300 -984 Descending New York Center
05:22AM 40.0383 -73.2219 324° Northwest 301 346 9,600 -992 Descending New York Center
05:23AM 40.0994 -73.2811 323° Northwest 278 320 8,300 -1,200 Descending New York Center
05:24AM 40.1650 -73.3378 327° Northwest 283 326 7,200 -650 Descending New York Center
05:25AM 40.2306 -73.3864 330° Northwest 283 326 7,000 -958 Descending New York Center
05:26AM 40.3097 -73.3919 357° North 264 304 5,300 -1,462 Descending New York Center
05:27AM 40.3825 -73.3975 357° North 269 310 4,100 -655 Descending New York Center
05:28AM 40.4575 -73.4033 357° North 269 310 4,000 -100 Descending New York Center
05:29AM 40.5303 -73.4086 357° North 269 310 3,900 -496 Descending New York Center
05:30AM 40.5939 -73.4467 336° Northwest 257 296 3,000 -446 Descending New York Center
05:31AM 40.6494 -73.4764 338° Northwest 243 280 3,000 -303 Level New York Center
05:32AM 40.6939 -73.5356 315° West 223 257 2,400 -500 Descending New York Center
05:33AM 40.7156 -73.5911 297° West 199 229 2,000 -180 Descending New York Center
05:34AM 40.7333 -73.6667 287° West 182 209 2,000 -321 Level New York TRACON
05:35AM 40.7000 -73.7167 229° Southwest 150 173 1,300 -700 Descending New York TRACON
05:36AM 40.6667 -73.7333 201° Southwest 132 152 600 -700 Descending New York TRACON
05:38AM 40.6333 -73.7667 275° West  Level FlightAware Approximate
05:45AM 40.6398 -73.7789 305° West  Level Estimated
05:46AM 40.6398 -73.7789 North  Level Estimated
05:47AM 40.6398 -73.7789 North  Level Estimated
05:48AM 40.6398 -73.7789 North  Level Estimated
05:49AM 40.6398 -73.7789 North  Level Estimated
05:50AM 40.6398 -73.7789 North  Level Estimated
05:51AM 40.6398 -73.7789 North  Level Estimated

Login

Don't have an account? Register now (free) for customized features, flight alerts, and more!